Time;durP1;ratioP1;P1;durP2;ratioP2;P2;SDS_P1;SDS_P2;PMS_P1;PMS_P2;Temp;Humidity;BMP_temperature;BMP_pressure;BME280_temperature;BME280_humidity;BME280_pressure;Samples;Min_cycle;Max_cycle;Signal;HPM_P1;HPM_P2
2023/06/22 00:01:03;;;;;;;16.13;14.52;;;;;;;23.20;96.77;99786.63;5054159;28;20036;-84
2023/06/22 00:03:28;;;;;;;18.58;16.58;;;;;;;23.17;96.66;99785.06;5054247;28;20025;-84
2023/06/22 00:05:54;;;;;;;17.30;15.70;;;;;;;23.28;96.85;99808.78;5053749;28;20055;-84
2023/06/22 00:08:19;;;;;;;17.20;15.60;;;;;;;23.00;96.52;99765.47;5053920;28;20027;-84
2023/06/22 00:10:46;;;;;;;18.27;16.38;;;;;;;23.30;96.80;99817.47;5052656;28;20040;-84
2023/06/22 00:13:13;;;;;;;18.85;16.95;;;;;;;22.99;97.08;99774.41;5053567;28;20435;-84
2023/06/22 00:15:40;;;;;;;18.02;16.33;;;;;;;23.10;97.26;99799.97;5053959;28;20099;-84
2023/06/22 00:18:10;;;;;;;16.80;14.90;;;;;;;23.04;97.87;99798.72;5053688;28;20469;-84
2023/06/22 00:20:36;;;;;;;17.08;15.48;;;;;;;23.19;97.52;99822.97;5053733;28;20033;-84
2023/06/22 00:23:08;;;;;;;19.23;17.38;;;;;;;22.96;98.30;99790.66;5053524;28;20078;-83
2023/06/22 00:25:39;;;;;;;19.05;17.25;;;;;;;22.95;98.71;99798.78;5053894;28;20032;-83
2023/06/22 00:28:05;;;;;;;18.13;16.20;;;;;;;23.06;99.10;99822.50;5052753;28;20062;-84
2023/06/22 00:30:31;;;;;;;19.27;17.35;;;;;;;23.02;99.40;99819.28;5053840;28;20060;-84
2023/06/22 00:32:58;;;;;;;19.52;17.50;;;;;;;23.08;99.38;99837.28;5053290;28;20024;-84
2023/06/22 00:35:29;;;;;;;20.17;17.92;;;;;;;22.94;100.00;99828.97;5053338;28;20029;-84
2023/06/22 00:38:03;;;;;;;17.60;16.00;;;;;;;22.94;100.00;99831.63;5051925;28;20432;-84
2023/06/22 00:40:30;;;;;;;19.98;18.08;;;;;;;22.99;99.79;99832.84;5053244;28;20044;-84
2023/06/22 00:42:56;;;;;;;18.23;16.52;;;;;;;22.89;99.98;99832.88;5053321;28;20051;-84
2023/06/22 00:45:25;;;;;;;19.58;17.67;;;;;;;22.74;100.00;99828.19;5053326;28;20469;-84
2023/06/22 00:47:56;;;;;;;18.42;16.63;;;;;;;22.74;100.00;99833.47;5051556;28;20044;-84
2023/06/22 00:50:25;;;;;;;16.23;14.73;;;;;;;22.77;100.00;99841.16;5053225;28;20485;-83
2023/06/22 00:52:58;;;;;;;17.45;15.38;;;;;;;22.86;100.00;99864.19;5053092;28;20038;-84
2023/06/22 00:55:25;;;;;;;16.98;15.32;;;;;;;22.62;100.00;99825.69;5053129;28;20036;-84
2023/06/22 00:57:55;;;;;;;15.30;13.90;;;;;;;22.79;100.00;99855.97;5053046;28;20124;-84
2023/06/22 01:00:24;;;;;;;18.38;16.38;;;;;;;22.70;100.00;99845.38;5053090;28;20060;-84
2023/06/22 01:02:51;;;;;;;17.58;15.77;;;;;;;22.73;100.00;99855.72;5052962;28;20029;-84
2023/06/22 01:05:21;;;;;;;17.45;15.75;;;;;;;22.74;100.00;99862.69;5053005;28;20025;-84
2023/06/22 01:08:02;;;;;;;18.17;16.27;;;;;;;22.75;100.00;99865.19;5052980;28;20028;-84
2023/06/22 01:10:46;;;;;;;17.20;15.60;;;;;;;22.71;100.00;99877.09;5052867;28;20082;-84
2023/06/22 01:13:23;;;;;;;16.55;15.00;;;;;;;22.55;100.00;99839.69;5052339;28;20108;-83
2023/06/22 01:15:56;;;;;;;16.17;14.63;;;;;;;22.62;100.00;99860.19;5052879;28;20384;-84
2023/06/22 01:18:25;;;;;;;17.42;15.68;;;;;;;22.39;100.00;99835.81;5052595;28;20461;-83
2023/06/22 01:20:53;;;;;;;17.08;15.48;;;;;;;22.45;100.00;99845.00;5052690;28;20116;-84
2023/06/22 01:23:40;;;;;;;17.00;15.27;;;;;;;22.44;100.00;99851.31;5051353;28;20029;-84
2023/06/22 01:26:18;;;;;;;16.15;14.65;;;;;;;22.46;100.00;99862.63;5052553;28;20025;-84
2023/06/22 01:28:55;;;;;;;16.45;14.77;;;;;;;22.21;100.00;99826.91;5052721;28;20053;-83
2023/06/22 01:31:24;;;;;;;17.30;15.60;;;;;;;22.29;100.00;99839.44;5031102;28;20120;-84
2023/06/22 01:33:53;;;;;;;16.27;14.55;;;;;;;22.22;100.00;99844.50;5032414;28;20030;-83
2023/06/22 01:36:20;;;;;;;15.90;14.50;;;;;;;22.33;100.00;99873.56;5030834;28;20037;-84
2023/06/22 01:38:47;;;;;;;15.55;13.88;;;;;;;22.07;100.00;99830.78;5031369;28;20424;-84
2023/06/22 01:41:13;;;;;;;17.02;15.43;;;;;;;22.19;100.00;99857.22;5032155;28;20029;-83
2023/06/22 01:43:38;;;;;;;17.42;15.60;;;;;;;22.02;100.00;99846.28;5032374;28;20040;-83
2023/06/22 01:46:04;;;;;;;17.30;15.70;;;;;;;22.12;100.00;99876.34;5032476;28;20029;-83
2023/06/22 01:48:30;;;;;;;17.15;15.35;;;;;;;22.06;100.00;99874.22;5032217;28;20623;-83
2023/06/22 01:50:57;;;;;;;17.92;16.13;;;;;;;22.06;100.00;99879.50;5032408;28;20409;-83
2023/06/22 01:53:22;;;;;;;17.67;15.88;;;;;;;21.86;100.00;99854.78;5032191;28;20021;-84
2023/06/22 01:55:49;;;;;;;16.13;14.60;;;;;;;21.81;100.00;99856.19;5032340;28;20482;-83
2023/06/22 01:58:15;;;;;;;16.58;15.07;;;;;;;21.63;100.00;99826.88;5032082;28;20144;-83
2023/06/22 02:00:48;;;;;;;16.83;15.13;;;;;;;21.68;100.00;99844.03;5032126;28;20505;-83
2023/06/22 02:03:19;;;;;;;17.02;15.35;;;;;;;21.77;100.00;99868.06;5031652;28;20040;-84
2023/06/22 02:05:52;;;;;;;16.85;15.20;;;;;;;21.70;100.00;99861.63;5031963;28;20465;-83
2023/06/22 02:08:41;;;;;;;16.52;14.82;;;;;;;21.74;100.00;99878.91;5031946;28;20021;-83
2023/06/22 02:11:09;;;;;;;18.05;16.35;;;;;;;21.57;100.00;99860.06;5029445;28;20048;-83
2023/06/22 02:13:36;;;;;;;19.88;17.95;;;;;;;21.38;100.00;99836.19;5029531;28;20033;-83
2023/06/22 02:16:02;;;;;;;17.80;16.15;;;;;;;21.62;100.00;99875.56;5029282;28;20512;-83
2023/06/22 02:18:28;;;;;;;18.38;16.67;;;;;;;21.60;100.00;99870.41;5029566;28;20033;-83
2023/06/22 02:20:53;;;;;;;18.77;16.88;;;;;;;21.60;100.00;99865.09;5029482;28;20059;-83
2023/06/22 02:23:18;;;;;;;17.83;16.08;;;;;;;21.53;100.00;99863.97;5029064;28;20113;-83
2023/06/22 02:25:44;;;;;;;19.10;17.27;;;;;;;21.58;100.00;99876.81;5029448;28;20496;-83
2023/06/22 02:28:09;;;;;;;18.13;16.30;;;;;;;21.45;100.00;99863.81;5029105;28;20041;-83
2023/06/22 02:30:35;;;;;;;18.67;16.58;;;;;;;21.29;100.00;99847.56;5029482;28;20033;-83
2023/06/22 02:33:00;;;;;;;19.08;17.15;;;;;;;21.29;100.00;99852.88;5029043;28;20057;-83
2023/06/22 02:35:27;;;;;;;18.92;17.13;;;;;;;21.24;100.00;99849.75;5012600;28;20461;-83
2023/06/22 02:37:52;;;;;;;19.15;17.15;;;;;;;21.29;100.00;99866.13;5012811;28;20029;-83
2023/06/22 02:40:17;;;;;;;18.67;16.77;;;;;;;21.34;100.00;99882.47;5029191;28;20034;-83
2023/06/22 02:42:43;;;;;;;19.45;15.82;;;;;;;21.23;100.00;99861.34;5029222;28;20132;-83
2023/06/22 02:45:09;;;;;;;18.88;17.08;;;;;;;21.30;100.00;99876.56;5029288;28;20120;-83
2023/06/22 02:47:34;;;;;;;17.10;15.50;;;;;;;21.20;100.00;99864.28;5029764;28;20045;-83
2023/06/22 02:50:01;;;;;;;18.15;16.25;;;;;;;21.21;100.00;99873.88;5030153;28;20049;-83
2023/06/22 02:52:26;;;;;;;17.55;15.82;;;;;;;21.08;100.00;99845.00;5034817;28;20107;-83
2023/06/22 02:54:52;;;;;;;18.67;16.88;;;;;;;21.22;100.00;99876.41;5035458;28;20029;-83
2023/06/22 02:57:17;;;;;;;19.10;17.20;;;;;;;21.17;100.00;99873.31;5035161;28;20037;-83
2023/06/22 02:59:43;;;;;;;19.55;17.65;;;;;;;21.14;100.00;99862.97;5035724;28;20362;-83
2023/06/22 03:02:09;;;;;;;18.60;16.75;;;;;;;21.26;100.00;99874.31;5035270;28;20030;-83
2023/06/22 03:04:35;;;;;;;18.83;17.08;;;;;;;21.23;100.00;99864.81;5035337;28;20025;-83
2023/06/22 03:07:01;;;;;;;21.27;19.15;;;;;;;21.32;100.00;99871.16;5033928;28;20049;-83
2023/06/22 03:09:30;;;;;;;20.50;18.50;;;;;;;21.22;100.00;99852.56;5035204;28;20072;-83
2023/06/22 03:11:55;;;;;;;18.25;16.55;;;;;;;21.38;100.00;99878.56;5035010;28;20033;-83
2023/06/22 03:14:21;;;;;;;18.83;17.02;;;;;;;21.46;100.00;99891.16;5035298;28;20022;-83
2023/06/22 03:16:46;;;;;;;19.77;17.77;;;;;;;21.45;100.00;99887.66;5035234;28;20516;-83
2023/06/22 03:19:12;;;;;;;18.83;17.02;;;;;;;21.48;100.00;99892.69;5035017;28;20053;-83
2023/06/22 03:21:41;;;;;;;21.25;19.15;;;;;;;21.52;100.00;99910.00;5035083;28;20026;-83
2023/06/22 03:24:07;;;;;;;21.45;19.15;;;;;;;21.39;100.00;99877.59;5033530;28;20037;-83
2023/06/22 03:26:33;;;;;;;20.23;18.23;;;;;;;21.46;100.00;99880.56;5033483;28;20018;-84
2023/06/22 03:28:58;;;;;;;20.52;17.10;;;;;;;21.44;100.00;99870.06;5035198;28;20029;-83
2023/06/22 03:31:24;;;;;;;19.67;17.77;;;;;;;21.62;100.00;99894.13;5034782;28;20032;-84
2023/06/22 03:33:50;;;;;;;21.67;19.42;;;;;;;21.59;100.00;99892.56;5033652;28;20175;-83
2023/06/22 03:36:20;;;;;;;21.33;19.25;;;;;;;21.74;100.00;99913.38;5033178;28;20073;-83
2023/06/22 03:38:47;;;;;;;21.42;19.45;;;;;;;21.61;100.00;99881.84;5034837;28;20041;-83
2023/06/22 03:41:12;;;;;;;25.33;22.83;;;;;;;21.73;100.00;99899.28;5034294;28;20116;-83
2023/06/22 03:43:38;;;;;;;22.48;20.27;;;;;;;21.56;100.00;99870.81;5034718;28;20104;-83
2023/06/22 03:46:03;;;;;;;21.20;18.95;;;;;;;21.72;100.00;99904.75;5034434;28;20461;-83
2023/06/22 03:48:28;;;;;;;23.33;21.10;;;;;;;21.70;100.00;99896.94;5032855;28;20022;-83
2023/06/22 03:50:54;;;;;;;22.95;20.67;;;;;;;21.60;100.00;99882.81;5034617;28;20167;-84
2023/06/22 03:53:19;;;;;;;21.85;19.75;;;;;;;21.67;100.00;99900.69;5033839;28;20079;-83
2023/06/22 03:55:50;;;;;;;22.58;20.33;;;;;;;21.71;100.00;99903.06;5034265;28;20025;-84
2023/06/22 03:58:15;;;;;;;21.40;19.38;;;;;;;21.81;100.00;99896.81;5034063;28;20029;-84
2023/06/22 04:00:40;;;;;;;26.15;22.10;;;;;;;21.67;100.00;99889.25;5034427;28;20048;-83
2023/06/22 04:03:07;;;;;;;23.60;21.17;;;;;;;21.68;100.00;99898.88;5033027;28;20033;-83
2023/06/22 04:05:32;;;;;;;22.75;20.45;;;;;;;21.94;100.00;99928.34;5033800;28;20087;-83
2023/06/22 04:07:58;;;;;;;21.25;19.25;;;;;;;21.99;100.00;99926.13;5034045;28;20022;-84
2023/06/22 04:10:23;;;;;;;20.98;18.92;;;;;;;22.20;100.00;99938.47;5032455;28;20116;-84
2023/06/22 04:12:49;;;;;;;21.80;19.70;;;;;;;22.39;100.00;99931.34;5034209;28;20056;-83
2023/06/22 04:15:14;;;;;;;20.27;18.25;;;;;;;22.65;100.00;99944.88;5033981;28;20427;-83
2023/06/22 04:17:39;;;;;;;22.27;19.95;;;;;;;22.84;100.00;99957.31;5034093;28;20025;-84
2023/06/22 04:20:05;;;;;;;25.95;23.35;;;;;;;22.74;100.00;99929.91;5032634;28;20037;-84
2023/06/22 04:22:31;;;;;;;25.90;23.25;;;;;;;22.89;100.00;99948.91;5033838;28;20513;-84
2023/06/22 04:24:56;;;;;;;25.73;23.20;;;;;;;23.29;100.00;99953.97;5033669;28;20112;-84
2023/06/22 04:27:23;;;;;;;24.70;22.20;;;;;;;23.38;98.04;99910.56;5032532;28;20151;-84
2023/06/22 04:29:48;;;;;;;23.88;21.45;;;;;;;24.02;95.21;99926.59;5033805;28;20037;-84
2023/06/22 04:32:15;;;;;;;22.83;20.70;;;;;;;24.60;91.92;99952.78;5033472;28;20511;-84
2023/06/22 04:34:40;;;;;;;24.02;21.52;;;;;;;24.86;91.47;99942.13;5033687;28;20082;-84
2023/06/22 04:37:06;;;;;;;26.08;23.50;;;;;;;24.82;90.18;99938.16;5033684;28;20136;-83
2023/06/22 04:39:31;;;;;;;26.63;23.98;;;;;;;24.69;90.53;99921.72;5032186;28;20444;-83
2023/06/22 04:42:00;;;;;;;24.80;22.38;;;;;;;24.69;91.62;99935.03;5033581;28;20491;-85
2023/06/22 04:44:25;;;;;;;23.88;21.40;;;;;;;24.94;91.27;99958.19;5031809;28;20116;-85
2023/06/22 04:46:59;;;;;;;24.90;22.55;;;;;;;25.04;90.61;99963.44;5033514;28;20520;-85
2023/06/22 04:49:32;;;;;;;26.60;24.00;;;;;;;25.13;89.79;99943.84;5033261;28;20115;-85
2023/06/22 04:52:03;;;;;;;26.67;24.08;;;;;;;25.48;87.96;99945.50;5033132;28;20100;-85
2023/06/22 04:54:28;;;;;;;23.67;21.38;;;;;;;26.16;85.79;99970.44;5033285;28;20025;-85
2023/06/22 04:56:56;;;;;;;23.15;20.92;;;;;;;27.04;82.52;99963.44;5033366;28;20028;-83
2023/06/22 04:59:29;;;;;;;22.17;20.08;;;;;;;27.52;79.55;99950.16;5032978;28;20030;-83
2023/06/22 05:01:59;;;;;;;25.20;22.70;;;;;;;27.65;78.48;99976.34;5033139;28;20453;-84
2023/06/22 05:04:25;;;;;;;25.50;23.10;;;;;;;27.18;80.50;99975.34;5031206;28;20531;-85
2023/06/22 05:06:54;;;;;;;24.15;21.75;;;;;;;26.70;81.76;99949.47;5033099;28;20061;-85
2023/06/22 05:09:20;;;;;;;25.00;22.70;;;;;;;26.67;82.00;99960.47;5032649;28;20108;-85
2023/06/22 05:11:46;;;;;;;23.45;21.25;;;;;;;26.65;83.17;99974.03;5032855;28;20100;-85
2023/06/22 05:14:12;;;;;;;25.17;22.70;;;;;;;26.75;82.73;99965.81;5032510;28;20029;-85
2023/06/22 05:16:38;;;;;;;24.65;22.35;;;;;;;27.23;81.07;99961.44;5032824;28;20096;-83
2023/06/22 05:19:03;;;;;;;23.48;21.13;;;;;;;27.67;78.67;99943.03;5032909;28;20037;-83
2023/06/22 05:21:30;;;;;;;26.83;24.20;;;;;;;28.14;76.99;99960.03;5032961;28;20076;-83
2023/06/22 05:23:59;;;;;;;24.80;22.50;;;;;;;28.13;77.37;99951.16;5032843;28;20421;-83
2023/06/22 05:26:25;;;;;;;25.20;22.77;;;;;;;27.75;77.70;99935.00;5032465;28;20029;-83
2023/06/22 05:28:51;;;;;;;24.02;21.70;;;;;;;27.49;78.05;99962.03;5032667;28;20060;-83
2023/06/22 05:31:17;;;;;;;23.25;21.05;;;;;;;27.45;77.82;99963.38;5032465;28;20092;-83
2023/06/22 05:33:43;;;;;;;26.02;23.55;;;;;;;27.49;77.84;99947.81;5032311;28;20029;-83
2023/06/22 05:36:09;;;;;;;23.73;21.33;;;;;;;27.68;76.32;99930.50;5032330;28;20077;-83
2023/06/22 05:38:35;;;;;;;21.88;19.65;;;;;;;28.18;74.97;99964.03;5032557;28;20026;-83
2023/06/22 05:41:01;;;;;;;23.15;21.05;;;;;;;28.32;72.76;99944.53;5031310;28;20040;-83
2023/06/22 05:43:26;;;;;;;20.80;18.90;;;;;;;28.21;73.22;99916.31;5032254;28;20026;-83
2023/06/22 05:45:51;;;;;;;20.48;18.38;;;;;;;28.15;73.02;99950.97;5032355;28;20025;-83
2023/06/22 05:48:17;;;;;;;20.45;18.33;;;;;;;27.92;73.48;99954.47;5032060;28;20018;-83
2023/06/22 05:50:42;;;;;;;19.70;17.90;;;;;;;27.98;73.22;99960.97;5032293;28;20028;-83
2023/06/22 05:53:08;;;;;;;20.13;18.13;;;;;;;27.71;74.15;99971.13;5032297;28;20116;-83
2023/06/22 05:55:33;;;;;;;19.70;17.83;;;;;;;27.59;72.41;99956.44;5030746;28;20026;-83
2023/06/22 05:57:58;;;;;;;20.95;19.05;;;;;;;27.38;72.91;99954.38;5032184;28;20034;-83
2023/06/22 06:00:24;;;;;;;20.10;18.25;;;;;;;27.40;73.18;99960.38;5031879;28;20112;-83
2023/06/22 06:02:50;;;;;;;16.55;14.95;;;;;;;27.31;73.63;99980.16;5031959;28;20072;-83
2023/06/22 06:05:16;;;;;;;15.95;14.45;;;;;;;27.32;71.87;99960.41;5032253;28;20488;-83
2023/06/22 06:07:42;;;;;;;16.02;14.38;;;;;;;27.51;71.02;99957.31;5032116;28;20512;-83
2023/06/22 06:10:08;;;;;;;16.10;14.60;;;;;;;27.95;69.87;99990.78;5032493;28;20053;-83
2023/06/22 06:12:33;;;;;;;16.40;14.90;;;;;;;28.14;68.95;99992.19;5031779;28;20021;-83
2023/06/22 06:14:58;;;;;;;15.93;14.30;;;;;;;28.51;67.89;99984.25;5032055;28;20389;-83
2023/06/22 06:17:24;;;;;;;16.50;14.90;;;;;;;28.78;66.58;99961.41;5032459;28;20025;-83
2023/06/22 06:19:49;;;;;;;16.55;14.95;;;;;;;28.89;66.52;99992.31;5032335;28;20033;-83
2023/06/22 06:22:14;;;;;;;15.75;13.98;;;;;;;29.03;65.33;99983.50;5032084;28;20030;-83
2023/06/22 06:24:40;;;;;;;14.85;13.38;;;;;;;28.95;66.47;99986.22;5031937;28;20087;-83
2023/06/22 06:27:05;;;;;;;12.77;11.48;;;;;;;29.51;65.41;99991.19;5034637;28;20108;-83
2023/06/22 06:29:31;;;;;;;13.88;12.50;;;;;;;30.14;63.05;99988.88;5035581;28;20037;-83
2023/06/22 06:31:57;;;;;;;12.75;11.48;;;;;;;31.01;61.24;100000.31;5035754;28;20037;-83
2023/06/22 06:34:23;;;;;;;12.68;11.52;;;;;;;31.97;59.43;100011.22;5035876;28;20389;-84
2023/06/22 06:36:48;;;;;;;13.13;12.00;;;;;;;32.69;57.28;99982.75;5035775;28;20042;-84
2023/06/22 06:39:13;;;;;;;14.30;12.80;;;;;;;33.48;56.28;99989.16;5035655;28;20021;-83
2023/06/22 06:41:38;;;;;;;14.50;13.30;;;;;;;34.20;54.05;100011.50;5035817;28;20026;-84
2023/06/22 06:44:04;;;;;;;13.60;12.40;;;;;;;34.59;53.51;99983.38;5035719;28;20039;-83
2023/06/22 06:46:29;;;;;;;12.90;11.63;;;;;;;35.65;52.48;100011.34;5035284;28;20030;-84
2023/06/22 06:48:55;;;;;;;13.18;12.07;;;;;;;35.98;50.90;100002.81;5035737;28;20345;-84
2023/06/22 06:51:20;;;;;;;13.40;12.25;;;;;;;35.98;51.42;100025.34;5035448;28;20040;-84
2023/06/22 06:53:45;;;;;;;14.65;13.45;;;;;;;34.61;52.19;100015.66;5034236;28;20048;-84
2023/06/22 06:56:11;;;;;;;14.45;13.25;;;;;;;32.82;55.02;99990.00;5035507;28;20112;-84
2023/06/22 06:58:36;;;;;;;16.30;14.70;;;;;;;31.73;58.17;100025.16;5035222;28;20033;-84
2023/06/22 07:01:02;;;;;;;16.75;15.23;;;;;;;30.93;60.11;99999.59;5035197;28;20382;-84
2023/06/22 07:03:28;;;;;;;16.23;14.70;;;;;;;30.53;61.42;99999.22;5035348;28;20025;-83
2023/06/22 07:05:53;;;;;;;17.38;15.88;;;;;;;30.14;62.70;100029.19;5035449;28;20052;-84
2023/06/22 07:08:19;;;;;;;15.60;14.13;;;;;;;29.71;64.49;100037.97;5035110;28;20428;-84
2023/06/22 07:10:44;;;;;;;17.35;15.63;;;;;;;29.26;65.18;100033.56;5035426;28;20033;-83
2023/06/22 07:13:09;;;;;;;20.77;18.88;;;;;;;29.09;65.88;100031.03;5035184;28;20389;-84
2023/06/22 07:15:35;;;;;;;17.05;15.45;;;;;;;29.06;67.03;100026.03;5033443;28;20039;-84
2023/06/22 07:18:00;;;;;;;17.08;15.45;;;;;;;31.34;62.62;100015.03;5035124;28;20033;-83
2023/06/22 07:20:25;;;;;;;15.88;14.48;;;;;;;33.90;57.27;100025.56;5034845;28;20109;-83
2023/06/22 07:22:51;;;;;;;18.17;16.33;;;;;;;35.61;53.45;100038.09;5035426;28;20028;-84
2023/06/22 07:25:17;;;;;;;18.02;16.40;;;;;;;36.67;50.65;100016.88;5034916;28;20434;-84
2023/06/22 07:28:06;;;;;;;16.48;15.02;;;;;;;36.60;50.41;100037.84;5035012;28;20021;-84
2023/06/22 07:30:33;;;;;;;16.92;15.43;;;;;;;35.23;51.48;100035.56;5032160;28;20084;-84
2023/06/22 07:33:03;;;;;;;15.38;14.07;;;;;;;33.94;54.08;100029.50;5032377;28;20037;-84
2023/06/22 07:35:29;;;;;;;16.45;14.90;;;;;;;33.35;55.92;100035.88;5031841;28;20045;-84
2023/06/22 07:37:54;;;;;;;15.85;14.45;;;;;;;33.14;56.42;100018.06;5032037;28;20040;-84
2023/06/22 07:40:20;;;;;;;17.27;15.88;;;;;;;33.87;54.90;100025.97;5032008;28;20428;-84
2023/06/22 07:42:48;;;;;;;17.08;15.57;;;;;;;34.24;55.19;100042.47;5032054;28;20045;-84
2023/06/22 07:45:13;;;;;;;16.80;15.50;;;;;;;34.48;54.32;100038.22;5032181;28;20095;-84
2023/06/22 07:47:39;;;;;;;15.55;14.27;;;;;;;34.48;55.33;100040.91;5031815;28;20033;-84
2023/06/22 07:50:05;;;;;;;19.25;17.45;;;;;;;35.65;52.63;100031.16;5032076;28;20030;-84
2023/06/22 07:52:30;;;;;;;18.92;17.23;;;;;;;36.76;50.19;99996.47;5031659;28;20506;-84
2023/06/22 07:54:56;;;;;;;17.17;15.63;;;;;;;37.79;49.33;100005.03;5031890;28;20049;-84
2023/06/22 07:57:21;;;;;;;15.38;14.10;;;;;;;38.50;48.21;100008.28;5031742;28;20535;-84
2023/06/22 07:59:47;;;;;;;15.80;14.60;;;;;;;39.63;47.55;100006.19;5031895;28;20095;-84
2023/06/22 08:02:12;;;;;;;15.82;14.63;;;;;;;40.65;45.80;100010.84;5031881;28;20497;-84
2023/06/22 08:04:38;;;;;;;17.48;15.90;;;;;;;41.04;43.91;100020.72;5031594;28;20052;-84
2023/06/22 08:07:04;;;;;;;15.90;14.60;;;;;;;40.90;44.39;100018.41;5032555;28;20037;-84
2023/06/22 08:09:31;;;;;;;14.07;12.98;;;;;;;41.15;43.67;100008.78;5034182;28;20061;-84
2023/06/22 08:11:57;;;;;;;15.48;14.07;;;;;;;41.61;43.17;100011.75;5033974;28;20500;-84
2023/06/22 08:14:25;;;;;;;15.65;14.32;;;;;;;41.09;43.14;99998.91;5034089;28;20035;-84
2023/06/22 08:16:50;;;;;;;15.48;14.23;;;;;;;39.56;44.55;100000.91;5034261;28;20063;-84
2023/06/22 08:19:16;;;;;;;17.10;15.70;;;;;;;38.13;46.82;99997.81;5033918;28;20068;-85
2023/06/22 08:21:41;;;;;;;17.35;15.75;;;;;;;36.23;49.87;100006.22;5033699;28;20030;-84
2023/06/22 08:24:07;;;;;;;17.08;15.43;;;;;;;35.02;51.61;100009.72;5032567;28;20033;-84
2023/06/22 08:26:35;;;;;;;15.57;14.25;;;;;;;34.22;53.72;99996.75;5033523;28;20113;-84
2023/06/22 08:29:01;;;;;;;15.40;14.00;;;;;;;33.85;54.28;99990.25;5034097;28;20083;-84
2023/06/22 08:31:27;;;;;;;13.95;12.85;;;;;;;33.25;54.93;99968.00;5032237;28;20025;-84
2023/06/22 08:33:52;;;;;;;15.07;13.68;;;;;;;33.15;55.57;99976.53;5033713;28;20056;-84
2023/06/22 08:36:18;;;;;;;15.52;14.05;;;;;;;32.71;55.53;99947.50;5046663;28;20060;-84
2023/06/22 08:38:44;;;;;;;14.48;13.25;;;;;;;32.15;56.20;99937.06;5053364;28;20044;-84
2023/06/22 08:41:09;;;;;;;13.07;11.95;;;;;;;31.94;57.42;99943.44;5053700;28;20029;-84
2023/06/22 08:43:35;;;;;;;14.60;13.40;;;;;;;31.60;57.49;99938.94;5053245;28;20380;-84
2023/06/22 08:46:02;;;;;;;15.30;13.88;;;;;;;31.44;57.89;99945.53;5053251;28;20029;-84
2023/06/22 08:48:27;;;;;;;13.05;11.93;;;;;;;31.09;58.25;99950.88;5052521;28;20025;-84
2023/06/22 08:50:53;;;;;;;13.52;12.43;;;;;;;30.86;58.61;99953.00;5049090;28;20036;-84
2023/06/22 08:53:18;;;;;;;14.95;13.65;;;;;;;30.58;58.62;99932.28;5038090;28;20028;-85
2023/06/22 08:55:45;;;;;;;14.88;13.57;;;;;;;30.43;59.29;99936.91;5050419;28;20559;-85
2023/06/22 08:58:10;;;;;;;13.93;12.55;;;;;;;30.31;60.09;99953.53;5050778;28;20033;-84
2023/06/22 09:00:36;;;;;;;12.23;11.23;;;;;;;30.46;60.27;99971.44;5050663;28;20056;-85
2023/06/22 09:03:01;;;;;;;11.68;10.63;;;;;;;30.54;59.08;99957.88;5050915;28;20139;-85
2023/06/22 09:05:27;;;;;;;12.15;11.13;;;;;;;30.63;59.74;99954.03;5054707;28;20139;-84
2023/06/22 09:07:54;;;;;;;12.25;11.25;;;;;;;30.84;59.83;99952.34;5062869;28;20060;-84
2023/06/22 09:10:20;;;;;;;14.32;13.00;;;;;;;30.73;59.05;99953.75;5059664;28;20045;-85
2023/06/22 09:12:45;;;;;;;12.23;11.23;;;;;;;30.79;58.85;99972.59;5057763;28;20036;-84
2023/06/22 09:15:10;;;;;;;13.25;12.05;;;;;;;30.91;58.92;99969.38;5059400;28;20036;-85
2023/06/22 09:17:36;;;;;;;13.82;12.63;;;;;;;30.75;58.78;99944.44;5059058;28;20155;-85
2023/06/22 09:20:05;;;;;;;12.77;11.60;;;;;;;30.54;59.35;99931.81;5057815;28;20393;-84
2023/06/22 09:22:31;;;;;;;12.73;11.50;;;;;;;30.47;59.33;99981.19;5058838;28;20037;-84
2023/06/22 09:24:56;;;;;;;13.20;12.00;;;;;;;30.20;59.26;99951.38;5059249;28;20040;-85
2023/06/22 09:27:22;;;;;;;10.75;9.75;;;;;;;30.13;59.48;99960.34;5044156;28;20033;-84
2023/06/22 09:29:48;;;;;;;11.95;10.93;;;;;;;30.00;59.37;99969.09;5043408;28;20025;-84
2023/06/22 09:32:13;;;;;;;12.80;11.60;;;;;;;29.42;60.00;99944.84;5044891;28;20123;-84
2023/06/22 09:34:38;;;;;;;10.15;9.13;;;;;;;29.51;59.64;99959.81;5052260;28;20053;-84
2023/06/22 09:37:04;;;;;;;12.27;11.07;;;;;;;29.29;59.85;99956.22;5045120;28;20045;-84
2023/06/22 09:39:29;;;;;;;11.38;10.32;;;;;;;29.00;61.08;99967.75;5031732;28;20021;-84
2023/06/22 09:41:55;;;;;;;11.65;10.50;;;;;;;28.93;61.27;99958.75;5032546;28;20385;-85
2023/06/22 09:44:20;;;;;;;11.45;10.45;;;;;;;28.98;62.05;99969.78;5032281;28;20463;-84
2023/06/22 09:46:46;;;;;;;10.40;9.50;;;;;;;29.06;61.35;99960.81;5031987;28;20040;-84
2023/06/22 09:49:11;;;;;;;10.25;9.27;;;;;;;29.11;60.68;99958.41;5032326;28;20113;-84
2023/06/22 09:51:36;;;;;;;9.82;9.00;;;;;;;29.20;60.49;99951.13;5031938;28;20099;-84
2023/06/22 09:54:01;;;;;;;9.68;8.88;;;;;;;29.48;61.17;99956.66;5032045;28;20448;-84
2023/06/22 09:56:28;;;;;;;10.18;9.18;;;;;;;29.57;60.02;99961.78;5031059;28;20103;-84
2023/06/22 09:58:53;;;;;;;10.77;9.77;;;;;;;29.57;59.36;99959.09;5032834;28;20405;-85
2023/06/22 10:01:20;;;;;;;9.63;8.90;;;;;;;29.45;59.26;99959.72;5032305;28;20026;-85
2023/06/22 10:03:46;;;;;;;9.55;8.75;;;;;;;29.58;59.13;99960.78;5031932;28;20029;-84
2023/06/22 10:06:11;;;;;;;8.95;8.20;;;;;;;29.49;57.68;99934.16;5032085;28;20028;-84
2023/06/22 10:08:36;;;;;;;8.40;7.70;;;;;;;29.46;55.78;99967.59;5031768;28;20120;-85
2023/06/22 10:11:03;;;;;;;8.65;7.88;;;;;;;29.21;56.36;99947.44;5032189;28;20030;-85
2023/06/22 10:13:28;;;;;;;8.65;7.85;;;;;;;29.19;57.14;99931.50;5031852;28;20029;-85
2023/06/22 10:15:54;;;;;;;9.95;9.05;;;;;;;29.24;57.08;99931.78;5032445;28;20393;-85
2023/06/22 10:18:19;;;;;;;9.52;8.68;;;;;;;28.98;57.63;99931.41;5032317;28;20381;-84
2023/06/22 10:20:48;;;;;;;9.93;9.13;;;;;;;28.96;58.16;99934.28;5031820;28;20037;-84
2023/06/22 10:23:14;;;;;;;8.82;8.02;;;;;;;28.83;57.57;99923.34;5031900;28;20034;-84
2023/06/22 10:25:39;;;;;;;10.68;9.57;;;;;;;28.89;57.47;99921.75;5030750;28;20056;-84
2023/06/22 10:28:04;;;;;;;9.00;8.20;;;;;;;28.81;58.04;99918.13;5032220;28;20026;-84
2023/06/22 10:30:29;;;;;;;8.50;7.70;;;;;;;28.93;58.25;99918.53;5031701;28;20365;-84
2023/06/22 10:32:55;;;;;;;9.50;8.70;;;;;;;28.77;59.08;99900.75;5032319;28;20556;-84
2023/06/22 10:35:20;;;;;;;10.10;9.20;;;;;;;28.87;58.30;99902.38;5030720;28;20112;-84
2023/06/22 10:37:46;;;;;;;9.05;8.25;;;;;;;29.03;58.38;99931.69;5030559;28;20106;-84
2023/06/22 10:40:18;;;;;;;9.55;8.60;;;;;;;28.91;57.77;99917.03;5029839;28;20049;-84
2023/06/22 10:42:44;;;;;;;8.55;7.72;;;;;;;28.80;56.91;99921.84;5030924;28;20035;-84
2023/06/22 10:45:10;;;;;;;8.68;7.88;;;;;;;28.79;57.77;99912.16;5029786;28;20021;-84
2023/06/22 10:47:36;;;;;;;10.55;9.60;;;;;;;28.88;58.62;99918.25;5030782;28;20033;-84
2023/06/22 10:50:01;;;;;;;8.65;7.85;;;;;;;28.96;56.94;99914.66;5030826;28;20037;-84
2023/06/22 10:52:27;;;;;;;9.15;8.25;;;;;;;28.85;57.13;99905.22;5030376;28;20033;-84
2023/06/22 10:54:52;;;;;;;8.32;7.53;;;;;;;29.15;57.44;99916.81;5031140;28;20026;-84
2023/06/22 10:57:18;;;;;;;9.13;8.25;;;;;;;28.97;56.94;99870.75;5030852;28;20057;-84
2023/06/22 10:59:43;;;;;;;10.15;9.15;;;;;;;28.87;57.71;99868.34;5030681;28;20023;-84
2023/06/22 11:02:08;;;;;;;8.98;8.27;;;;;;;28.88;58.06;99875.34;5030649;28;20037;-84
2023/06/22 11:04:34;;;;;;;9.90;8.88;;;;;;;28.88;58.21;99907.53;5030307;28;20025;-84
2023/06/22 11:06:59;;;;;;;9.13;8.32;;;;;;;28.91;58.08;99898.25;5030366;28;20440;-84
2023/06/22 11:09:24;;;;;;;9.32;8.52;;;;;;;28.96;58.11;99879.81;5030830;28;20057;-85
2023/06/22 11:11:53;;;;;;;8.32;7.63;;;;;;;29.16;58.04;99885.44;5030966;28;20033;-84